Time;durP1;ratioP1;P1;durP2;ratioP2;P2;SDS_P1;SDS_P2;PMS_P1;PMS_P2;Temp;Humidity;BMP_temperature;BMP_pressure;BME280_temperature;BME280_humidity;BME280_pressure;Samples;Min_cycle;Max_cycle;Signal;HPM_P1;HPM_P2
2021/05/22 00:01:37;;;;;;;43.10;39.85;;;14.60;99.90;;;;;;5015257;28;20481;-62
2021/05/22 00:04:05;;;;;;;42.05;39.28;;;14.80;99.90;;;;;;5015224;28;20033;-62
2021/05/22 00:06:32;;;;;;;39.13;36.67;;;14.70;99.90;;;;;;5015229;28;20493;-62
2021/05/22 00:09:00;;;;;;;38.55;35.90;;;14.30;99.90;;;;;;5015256;28;20038;-61
2021/05/22 00:11:28;;;;;;;36.72;34.22;;;14.80;99.90;;;;;;5015296;28;20022;-61
2021/05/22 00:13:56;;;;;;;36.47;33.70;;;14.90;99.90;;;;;;5015111;28;20044;-62
2021/05/22 00:16:24;;;;;;;38.22;35.42;;;15.00;99.90;;;;;;5015008;28;20036;-63
2021/05/22 00:18:51;;;;;;;37.05;34.30;;;15.10;99.90;;;;;;5014945;28;20097;-60
2021/05/22 00:21:18;;;;;;;38.67;35.83;;;15.20;99.90;;;;;;5014968;28;20045;-63
2021/05/22 00:23:46;;;;;;;36.55;34.17;;;15.30;99.90;;;;;;5014032;28;20156;-61
2021/05/22 00:26:13;;;;;;;34.75;32.38;;;15.50;99.90;;;;;;5015128;28;20026;-62
2021/05/22 00:28:41;;;;;;;34.65;32.15;;;15.60;99.90;;;;;;5014977;28;20033;-62
2021/05/22 00:31:08;;;;;;;34.10;31.38;;;15.70;99.90;;;;;;5014758;28;20418;-62
2021/05/22 00:33:35;;;;;;;34.85;32.35;;;15.80;99.90;;;;;;5014870;28;20029;-62
2021/05/22 00:36:03;;;;;;;31.08;28.98;;;15.80;99.90;;;;;;5014918;28;20526;-62
2021/05/22 00:38:30;;;;;;;32.45;30.02;;;15.80;99.90;;;;;;5014562;28;20018;-62
2021/05/22 00:40:58;;;;;;;30.58;28.67;;;16.10;99.90;;;;;;5014723;28;20200;-62
2021/05/22 00:43:25;;;;;;;32.20;29.88;;;16.20;99.90;;;;;;5014663;28;20080;-60
2021/05/22 00:45:54;;;;;;;32.05;29.80;;;16.40;99.90;;;;;;5014485;28;20065;-62
2021/05/22 00:48:22;;;;;;;32.58;30.02;;;16.50;99.90;;;;;;5014326;28;20492;-61
2021/05/22 00:50:53;;;;;;;30.25;28.17;;;16.70;99.90;;;;;;5014348;28;20026;-62
2021/05/22 00:53:20;;;;;;;30.27;28.00;;;16.80;99.90;;;;;;5014391;28;20514;-61
2021/05/22 00:55:48;;;;;;;28.45;26.35;;;16.90;99.90;;;;;;5014361;28;20025;-60
2021/05/22 00:58:15;;;;;;;28.02;25.73;;;16.90;99.90;;;;;;5014101;28;20136;-60
2021/05/22 01:00:50;;;;;;;28.30;26.02;;;16.90;99.90;;;;;;5014233;28;20018;-60
2021/05/22 01:03:40;;;;;;;28.00;25.70;;;17.10;99.90;;;;;;5014312;28;20072;-60
2021/05/22 01:06:22;;;;;;;24.73;22.92;;;17.20;99.90;;;;;;5014268;28;20025;-61
2021/05/22 01:08:56;;;;;;;25.20;23.30;;;17.10;99.90;;;;;;5014325;28;20014;-61
2021/05/22 01:11:47;;;;;;;24.65;22.95;;;17.10;99.90;;;;;;5014279;28;20029;-60
2021/05/22 01:14:23;;;;;;;23.48;21.77;;;17.10;99.90;;;;;;5013686;28;20096;-59
2021/05/22 01:16:53;;;;;;;23.85;21.88;;;17.10;99.90;;;;;;5014126;28;20026;-61
2021/05/22 01:19:30;;;;;;;24.05;22.25;;;17.10;99.90;;;;;;5013994;28;20026;-61
2021/05/22 01:21:58;;;;;;;22.10;20.40;;;17.20;99.90;;;;;;5013910;28;20018;-60
2021/05/22 01:24:29;;;;;;;23.80;21.90;;;17.20;99.90;;;;;;5013976;28;20022;-62
2021/05/22 01:26:57;;;;;;;24.05;22.33;;;17.40;99.90;;;;;;4997014;28;20022;-60
2021/05/22 01:29:24;;;;;;;24.73;22.42;;;17.60;99.90;;;;;;5013865;28;20022;-60
2021/05/22 01:31:53;;;;;;;22.80;21.20;;;17.70;99.90;;;;;;5013800;28;20033;-60
2021/05/22 01:34:20;;;;;;;22.50;20.80;;;17.60;99.90;;;;;;5013500;28;20030;-60
2021/05/22 01:36:50;;;;;;;21.45;19.48;;;17.70;99.90;;;;;;5013798;28;20025;-60
2021/05/22 01:39:18;;;;;;;20.48;19.08;;;17.80;99.90;;;;;;5013660;28;20044;-60
2021/05/22 01:41:45;;;;;;;18.80;17.50;;;17.90;99.90;;;;;;5013671;28;20026;-60
2021/05/22 01:44:13;;;;;;;17.70;16.30;;;18.00;99.90;;;;;;5013566;28;20022;-62
2021/05/22 01:46:43;;;;;;;16.70;15.70;;;17.90;99.90;;;;;;5013758;28;20037;-61
2021/05/22 01:49:12;;;;;;;16.30;15.10;;;17.70;99.90;;;;;;5013435;28;20072;-60
2021/05/22 01:51:41;;;;;;;16.45;15.30;;;17.90;99.90;;;;;;5013714;28;20404;-61
2021/05/22 01:54:12;;;;;;;15.30;14.10;;;18.00;99.90;;;;;;5013687;28;20157;-61
2021/05/22 01:56:41;;;;;;;15.38;13.80;;;18.10;99.90;;;;;;5013612;28;20360;-61
2021/05/22 01:59:08;;;;;;;13.70;12.48;;;18.10;99.90;;;;;;5013278;28;20120;-62
2021/05/22 02:01:36;;;;;;;13.98;12.70;;;18.20;99.90;;;;;;5013331;28;20068;-62
2021/05/22 02:04:06;;;;;;;13.23;11.93;;;18.30;99.90;;;;;;5013244;28;20477;-62
2021/05/22 02:06:43;;;;;;;10.63;9.75;;;18.40;99.90;;;;;;5013427;28;20029;-62
2021/05/22 02:09:14;;;;;;;11.20;10.00;;;18.20;99.90;;;;;;5013379;28;20505;-63
2021/05/22 02:11:44;;;;;;;12.13;9.35;;;18.20;99.90;;;;;;5013079;28;20425;-61
2021/05/22 02:14:16;;;;;;;10.90;10.00;;;18.30;99.90;;;;;;5013230;28;20034;-61
2021/05/22 02:16:53;;;;;;;12.98;9.77;;;18.30;99.90;;;;;;5013259;28;20505;-63
2021/05/22 02:19:29;;;;;;;12.20;10.50;;;18.40;99.90;;;;;;5013292;28;20014;-63
2021/05/22 02:22:00;;;;;;;10.98;7.88;;;18.60;99.90;;;;;;5013148;28;20471;-63
2021/05/22 02:24:27;;;;;;;8.30;6.95;;;18.60;99.90;;;;;;5012958;28;20018;-64
2021/05/22 02:26:58;;;;;;;8.05;6.97;;;18.50;99.90;;;;;;5013010;28;20057;-62
2021/05/22 02:29:25;;;;;;;;;;;18.40;99.90;;;;;;5013573;28;20041;-62
2021/05/22 02:31:54;;;;;;;11.63;7.70;;;18.70;99.90;;;;;;5013190;28;19906;-62
2021/05/22 02:34:57;;;;;;;8.30;7.13;;;18.80;99.90;;;;;;5012977;28;20026;-62
2021/05/22 02:37:30;;;;;;;11.65;8.10;;;18.80;99.90;;;;;;4981861;28;20034;-62
2021/05/22 02:40:05;;;;;;;8.48;6.47;;;19.00;99.90;;;;;;5012974;28;20088;-61
2021/05/22 02:42:33;;;;;;;8.13;6.80;;;19.00;99.90;;;;;;5013334;28;20030;-62
2021/05/22 02:45:03;;;;;;;7.85;5.53;;;19.00;99.90;;;;;;5012933;28;20026;-62
2021/05/22 02:47:31;;;;;;;7.15;6.00;;;19.00;99.90;;;;;;5015178;28;20513;-62
2021/05/22 02:50:08;;;;;;;10.90;5.85;;;19.20;99.90;;;;;;5016678;28;20483;-61
2021/05/22 02:52:38;;;;;;;6.85;5.70;;;19.50;99.90;;;;;;5016676;28;20084;-62
2021/05/22 02:55:09;;;;;;;8.30;6.00;;;19.60;99.90;;;;;;5016609;28;20113;-61
2021/05/22 02:57:41;;;;;;;7.50;5.55;;;19.60;99.90;;;;;;5016537;28;20030;-61
2021/05/22 03:00:12;;;;;;;9.07;5.00;;;19.40;99.90;;;;;;4998186;28;20126;-61
2021/05/22 03:02:41;;;;;;;10.77;5.93;;;19.20;99.90;;;;;;4996931;28;20447;-61
2021/05/22 03:05:09;;;;;;;9.43;5.35;;;19.10;99.90;;;;;;4996835;28;20394;-61
2021/05/22 03:07:37;;;;;;;6.40;4.88;;;19.00;99.90;;;;;;4996984;28;20023;-61
2021/05/22 03:10:05;;;;;;;9.57;5.03;;;19.10;99.90;;;;;;4996730;28;20106;-61
2021/05/22 03:12:35;;;;;;;9.27;4.97;;;19.20;99.90;;;;;;4996755;28;20026;-61
2021/05/22 03:15:04;;;;;;;9.73;5.50;;;19.10;99.90;;;;;;4996638;28;20406;-61
2021/05/22 03:17:32;;;;;;;5.95;5.00;;;19.20;99.90;;;;;;4996603;28;20029;-61
2021/05/22 03:20:00;;;;;;;10.05;4.85;;;19.30;99.90;;;;;;4996685;28;20025;-61
2021/05/22 03:22:27;;;;;;;7.55;4.82;;;19.50;99.90;;;;;;4996546;28;20019;-61
2021/05/22 03:24:55;;;;;;;6.72;4.55;;;19.30;99.90;;;;;;4996590;28;20587;-61
2021/05/22 03:27:22;;;;;;;8.45;5.18;;;19.50;99.90;;;;;;4996572;28;20029;-61
2021/05/22 03:29:49;;;;;;;7.10;4.90;;;19.50;99.90;;;;;;4996559;28;20101;-61
2021/05/22 03:32:17;;;;;;;9.32;5.35;;;19.50;99.90;;;;;;4996410;28;20458;-64
2021/05/22 03:34:44;;;;;;;9.18;5.40;;;19.60;99.90;;;;;;4996389;28;20022;-64
2021/05/22 03:37:11;;;;;;;7.93;4.65;;;19.70;99.90;;;;;;4996336;28;20049;-65
2021/05/22 03:39:39;;;;;;;6.80;4.75;;;19.70;99.90;;;;;;4996375;28;20014;-66
2021/05/22 03:42:07;;;;;;;7.95;4.90;;;19.80;99.90;;;;;;4996270;28;20069;-64
2021/05/22 03:44:35;;;;;;;5.97;4.38;;;19.80;99.90;;;;;;4996264;28;20036;-64
2021/05/22 03:47:02;;;;;;;7.18;4.30;;;19.80;99.90;;;;;;4996197;28;20027;-64
2021/05/22 03:49:30;;;;;;;8.40;4.55;;;19.70;99.90;;;;;;4995933;28;20026;-63
2021/05/22 03:51:58;;;;;;;8.13;3.88;;;19.60;99.90;;;;;;4996281;28;20026;-62
2021/05/22 03:54:25;;;;;;;9.45;4.05;;;19.70;99.90;;;;;;4995886;28;20431;-63
2021/05/22 03:56:53;;;;;;;6.00;4.70;;;19.60;99.90;;;;;;4995927;28;20364;-63
2021/05/22 03:59:20;;;;;;;6.72;4.43;;;19.80;99.90;;;;;;5006135;28;20030;-64
2021/05/22 04:01:48;;;;;;;6.80;4.35;;;19.80;99.90;;;;;;5015614;28;20096;-63
2021/05/22 04:04:15;;;;;;;7.13;4.68;;;19.70;99.90;;;;;;5015461;28;20018;-63
2021/05/22 04:06:42;;;;;;;5.97;4.10;;;19.80;99.90;;;;;;5015269;28;20471;-63
2021/05/22 04:09:10;;;;;;;7.35;4.90;;;19.60;99.90;;;;;;5015445;28;20077;-63
2021/05/22 04:11:37;;;;;;;6.55;4.70;;;19.60;99.90;;;;;;5015407;28;20362;-63
2021/05/22 04:14:05;;;;;;;8.52;5.00;;;19.70;99.90;;;;;;5015045;28;20483;-63
2021/05/22 04:16:32;;;;;;;12.18;4.90;;;19.90;99.90;;;;;;5015251;28;20485;-63
2021/05/22 04:19:00;;;;;;;9.38;5.80;;;19.80;99.90;;;;;;5015233;28;20029;-64
2021/05/22 04:21:31;;;;;;;13.43;5.55;;;20.00;99.90;;;;;;5014954;28;20121;-64
2021/05/22 04:23:58;;;;;;;7.25;5.00;;;20.20;99.90;;;;;;5015022;28;20487;-64
2021/05/22 04:26:25;;;;;;;8.25;4.57;;;20.00;99.90;;;;;;4997664;28;20478;-61
2021/05/22 04:28:53;;;;;;;7.38;4.90;;;20.00;99.90;;;;;;5015043;28;20510;-64
2021/05/22 04:31:20;;;;;;;8.38;4.35;;;20.10;99.90;;;;;;5014864;28;20085;-64
2021/05/22 04:33:48;;;;;;;9.60;5.32;;;19.90;99.90;;;;;;5014695;28;20197;-64
2021/05/22 04:36:15;;;;;;;6.53;4.70;;;19.80;99.90;;;;;;5014663;28;20072;-63
2021/05/22 04:38:42;;;;;;;7.90;4.60;;;19.80;99.90;;;;;;5014596;28;20390;-63
2021/05/22 04:41:10;;;;;;;7.80;4.60;;;19.70;99.90;;;;;;5014704;28;20018;-63
2021/05/22 04:43:37;;;;;;;6.45;5.63;;;19.70;99.90;;;;;;5014742;28;20125;-63
2021/05/22 04:46:05;;;;;;;9.45;4.95;;;19.90;99.90;;;;;;5014581;28;20033;-63
2021/05/22 04:48:32;;;;;;;11.10;5.03;;;19.80;99.90;;;;;;5014575;28;20101;-64
2021/05/22 04:51:00;;;;;;;9.98;6.32;;;19.90;99.90;;;;;;5014633;28;20105;-62
2021/05/22 04:53:27;;;;;;;6.78;5.15;;;19.80;99.90;;;;;;5014372;28;20513;-61
2021/05/22 04:55:58;;;;;;;9.52;5.03;;;19.70;99.90;;;;;;5014904;28;20022;-62
2021/05/22 04:58:25;;;;;;;7.00;5.07;;;19.90;99.90;;;;;;5009979;28;20038;-63
2021/05/22 05:00:52;;;;;;;9.13;5.10;;;19.80;99.90;;;;;;4994855;28;20018;-64
2021/05/22 05:03:20;;;;;;;9.25;5.45;;;19.60;99.90;;;;;;4994785;28;20022;-63
2021/05/22 05:05:47;;;;;;;9.15;5.15;;;19.30;99.90;;;;;;4994844;28;20022;-62
2021/05/22 05:08:20;;;;;;;8.68;5.97;;;19.00;99.90;;;;;;4994653;28;20023;-62
2021/05/22 05:10:48;;;;;;;7.47;5.53;;;18.90;99.90;;;;;;4994417;28;20395;-62
2021/05/22 05:13:17;;;;;;;13.20;6.00;;;18.80;99.90;;;;;;4994363;28;20019;-63
2021/05/22 05:15:44;;;;;;;8.60;6.10;;;18.90;99.90;;;;;;4994986;28;20093;-63
2021/05/22 05:18:12;;;;;;;7.25;5.00;;;18.80;99.90;;;;;;4977198;28;20030;-62
2021/05/22 05:20:39;;;;;;;8.10;5.53;;;18.70;99.90;;;;;;4994230;28;20033;-63
2021/05/22 05:23:06;;;;;;;7.18;5.75;;;18.70;99.90;;;;;;4994397;28;20368;-62
2021/05/22 05:25:34;;;;;;;7.57;5.88;;;18.60;99.90;;;;;;4994387;28;20033;-62
2021/05/22 05:28:01;;;;;;;11.20;6.93;;;18.50;99.90;;;;;;4994292;28;20487;-62
2021/05/22 05:30:28;;;;;;;6.68;6.03;;;18.30;99.90;;;;;;4994173;28;20364;-63
2021/05/22 05:32:56;;;;;;;8.43;6.68;;;18.30;99.90;;;;;;4994130;28;20373;-62
2021/05/22 05:35:23;;;;;;;8.98;6.40;;;18.20;99.90;;;;;;4994096;28;20085;-63
2021/05/22 05:37:50;;;;;;;10.02;7.13;;;18.30;99.90;;;;;;4994093;28;20444;-64
2021/05/22 05:40:21;;;;;;;7.60;5.25;;;18.30;99.90;;;;;;4994106;28;20022;-62
2021/05/22 05:42:50;;;;;;;8.27;6.40;;;18.30;99.90;;;;;;4994027;28;20096;-62
2021/05/22 05:45:17;;;;;;;8.40;5.97;;;18.30;99.90;;;;;;4994105;28;20034;-62
2021/05/22 05:47:44;;;;;;;11.32;7.40;;;18.20;99.90;;;;;;4994074;28;20030;-63
2021/05/22 05:50:12;;;;;;;8.20;7.40;;;18.10;99.90;;;;;;4994386;28;20030;-63
2021/05/22 05:52:40;;;;;;;10.68;7.47;;;18.00;99.90;;;;;;4993806;28;20037;-63
2021/05/22 05:55:07;;;;;;;11.95;8.45;;;17.90;99.90;;;;;;4993943;28;20476;-63
2021/05/22 05:57:35;;;;;;;9.60;8.63;;;17.90;99.90;;;;;;4993887;28;20073;-62
2021/05/22 06:00:03;;;;;;;8.73;7.60;;;17.80;99.90;;;;;;4993754;28;20038;-63
2021/05/22 06:02:31;;;;;;;9.68;8.77;;;17.80;99.90;;;;;;4993685;28;20030;-63
2021/05/22 06:04:58;;;;;;;10.10;9.10;;;17.80;99.90;;;;;;4976337;28;20117;-63
2021/05/22 06:07:28;;;;;;;10.30;9.05;;;17.60;99.90;;;;;;4993638;28;20018;-60
2021/05/22 06:09:55;;;;;;;12.02;10.80;;;17.60;99.90;;;;;;4993697;28;20053;-62
2021/05/22 06:12:22;;;;;;;11.85;10.80;;;17.50;99.90;;;;;;4993658;28;20041;-62
2021/05/22 06:14:53;;;;;;;11.65;10.65;;;17.50;99.90;;;;;;4993795;28;20065;-62
2021/05/22 06:17:21;;;;;;;11.68;10.48;;;17.40;99.90;;;;;;4993865;28;20026;-62
2021/05/22 06:19:48;;;;;;;11.80;10.75;;;17.30;99.90;;;;;;4993484;28;20026;-62
2021/05/22 06:22:15;;;;;;;11.68;10.48;;;17.30;99.90;;;;;;4992661;28;20058;-62
2021/05/22 06:24:43;;;;;;;11.95;10.95;;;17.10;99.90;;;;;;4993395;28;20022;-63
2021/05/22 06:27:10;;;;;;;13.65;12.30;;;17.10;99.90;;;;;;4993467;28;20466;-61
2021/05/22 06:29:37;;;;;;;13.70;12.52;;;17.00;99.90;;;;;;4993448;28;20022;-60
2021/05/22 06:32:05;;;;;;;15.80;14.25;;;17.00;99.90;;;;;;4993447;28;20148;-61
2021/05/22 06:34:32;;;;;;;16.48;14.90;;;16.80;99.90;;;;;;4993418;28;20026;-61
2021/05/22 06:36:59;;;;;;;16.25;15.07;;;16.70;99.90;;;;;;4993392;28;20101;-63
2021/05/22 06:39:27;;;;;;;16.67;15.55;;;16.70;99.90;;;;;;4993258;28;20026;-63
2021/05/22 06:41:54;;;;;;;18.70;17.45;;;16.50;99.90;;;;;;4993439;28;20022;-63
2021/05/22 06:44:49;;;;;;;18.85;17.33;;;16.40;99.90;;;;;;4975903;28;20475;-63
2021/05/22 06:47:09;;;;;;;21.33;19.73;;;16.30;99.90;;;;;;4992746;28;20049;-63
2021/05/22 06:49:36;;;;;;;21.73;19.70;;;16.20;99.90;;;;;;4993293;28;20059;-63
2021/05/22 06:52:04;;;;;;;21.95;20.10;;;16.10;99.90;;;;;;4993463;28;20395;-63
2021/05/22 06:54:34;;;;;;;23.65;21.88;;;16.00;99.90;;;;;;4993167;28;20031;-62
2021/05/22 06:57:01;;;;;;;23.23;21.60;;;16.00;99.90;;;;;;4993601;28;20022;-62
2021/05/22 06:59:29;;;;;;;23.45;21.65;;;15.90;99.90;;;;;;5004069;28;20646;-63
2021/05/22 07:01:59;;;;;;;24.08;22.25;;;15.90;99.90;;;;;;5012950;28;20020;-62
2021/05/22 07:04:26;;;;;;;24.75;22.92;;;15.70;99.90;;;;;;5012880;28;20498;-62
2021/05/22 07:06:54;;;;;;;25.30;23.60;;;15.60;99.90;;;;;;5012982;28;20037;-61
2021/05/22 07:09:21;;;;;;;25.65;23.80;;;15.50;99.90;;;;;;5012701;28;20109;-63
2021/05/22 07:11:49;;;;;;;27.50;25.52;;;15.40;99.90;;;;;;5012868;28;20442;-62
2021/05/22 07:14:16;;;;;;;27.88;26.08;;;15.30;99.90;;;;;;5013058;28;20022;-62
2021/05/22 07:16:43;;;;;;;29.88;27.85;;;15.30;99.90;;;;;;5012798;28;20049;-62
2021/05/22 07:19:11;;;;;;;30.48;28.38;;;15.20;99.90;;;;;;5012657;28;20454;-62
2021/05/22 07:21:38;;;;;;;32.25;30.35;;;15.20;99.90;;;;;;5012535;28;20034;-62
2021/05/22 07:24:06;;;;;;;34.67;32.28;;;15.20;99.90;;;;;;5012619;28;20565;-60
2021/05/22 07:26:33;;;;;;;33.78;31.48;;;15.20;99.90;;;;;;5012726;28;20088;-62
2021/05/22 07:29:03;;;;;;;36.72;34.17;;;15.20;99.90;;;;;;5012811;28;20022;-65
2021/05/22 07:31:32;;;;;;;36.78;34.38;;;15.10;99.90;;;;;;5012515;28;20479;-64
2021/05/22 07:34:01;;;;;;;36.70;34.10;;;15.10;99.90;;;;;;5014990;28;20490;-63
2021/05/22 07:36:29;;;;;;;37.90;34.83;;;15.00;99.90;;;;;;5015995;28;20030;-65
2021/05/22 07:38:56;;;;;;;35.97;33.78;;;14.90;99.90;;;;;;5016041;28;20080;-65
2021/05/22 07:41:23;;;;;;;37.38;34.78;;;14.90;99.90;;;;;;5016049;28;20022;-65
2021/05/22 07:43:51;;;;;;;39.03;35.92;;;14.80;99.90;;;;;;5015969;28;20031;-65
2021/05/22 07:46:18;;;;;;;38.60;35.67;;;14.80;99.90;;;;;;5015768;28;20029;-65
2021/05/22 07:48:45;;;;;;;38.25;35.60;;;14.70;99.90;;;;;;5015885;28;20064;-66
2021/05/22 07:51:14;;;;;;;39.80;37.00;;;14.70;99.90;;;;;;5015730;28;20025;-64
2021/05/22 07:53:42;;;;;;;39.15;36.35;;;14.70;99.90;;;;;;5015717;28;20165;-66
2021/05/22 07:56:09;;;;;;;40.15;37.35;;;14.70;99.90;;;;;;5015678;28;20065;-63
2021/05/22 07:58:37;;;;;;;41.70;38.65;;;14.60;99.90;;;;;;5015513;28;20125;-65
2021/05/22 08:01:04;;;;;;;41.35;38.65;;;14.60;99.90;;;;;;5015609;28;20022;-66
2021/05/22 08:03:32;;;;;;;43.63;40.30;;;14.50;99.90;;;;;;5015412;28;20029;-64
2021/05/22 08:05:59;;;;;;;43.92;40.47;;;14.50;99.90;;;;;;5015376;28;20025;-64
2021/05/22 08:08:27;;;;;;;43.78;40.67;;;14.40;99.90;;;;;;5015283;28;20427;-65
2021/05/22 08:10:54;;;;;;;42.65;39.75;;;14.40;99.90;;;;;;4998153;28;20025;-67
2021/05/22 08:13:25;;;;;;;43.80;40.75;;;14.40;99.90;;;;;;5015249;28;20519;-64
2021/05/22 08:15:52;;;;;;;43.63;40.58;;;14.40;99.90;;;;;;5015284;28;20034;-64
2021/05/22 08:18:20;;;;;;;47.97;44.75;;;14.40;99.90;;;;;;5015136;28;20064;-64
2021/05/22 08:20:47;;;;;;;45.85;42.33;;;14.30;99.90;;;;;;5014790;28;20018;-64
2021/05/22 08:23:15;;;;;;;47.38;43.85;;;14.30;99.90;;;;;;5014947;28;20018;-70
2021/05/22 08:25:42;;;;;;;47.50;43.90;;;14.30;99.90;;;;;;5014630;28;20030;-67
2021/05/22 08:28:10;;;;;;;48.38;44.60;;;14.30;99.90;;;;;;5014941;28;20077;-67
2021/05/22 08:30:37;;;;;;;46.08;42.50;;;14.20;99.90;;;;;;5014967;28;20030;-68
2021/05/22 08:33:05;;;;;;;47.50;44.03;;;14.20;99.90;;;;;;5014735;28;20478;-66
2021/05/22 08:35:32;;;;;;;46.13;42.38;;;14.10;99.90;;;;;;5014743;28;20022;-66
2021/05/22 08:37:59;;;;;;;46.95;43.40;;;14.10;99.90;;;;;;5014573;28;20029;-62
2021/05/22 08:40:29;;;;;;;47.20;43.45;;;14.10;99.90;;;;;;5014584;28;20021;-61
2021/05/22 08:42:56;;;;;;;48.38;44.65;;;14.00;99.90;;;;;;5014266;28;20080;-62
2021/05/22 08:45:24;;;;;;;49.70;45.95;;;14.00;99.90;;;;;;5013321;28;20025;-62
2021/05/22 08:47:53;;;;;;;49.45;45.10;;;13.90;99.90;;;;;;5014606;28;20029;-62
2021/05/22 08:50:22;;;;;;;47.53;44.08;;;13.90;99.90;;;;;;5014247;28;20041;-62
2021/05/22 08:52:53;;;;;;;48.50;45.00;;;13.90;99.90;;;;;;5014353;28;20038;-62
2021/05/22 08:55:22;;;;;;;46.40;43.17;;;13.90;99.90;;;;;;5014188;28;20483;-62
2021/05/22 08:57:51;;;;;;;48.92;44.95;;;13.80;99.90;;;;;;5014164;28;20479;-62
2021/05/22 09:00:22;;;;;;;47.88;44.38;;;13.80;99.90;;;;;;5014134;28;20064;-61
2021/05/22 09:02:50;;;;;;;49.83;46.22;;;13.80;99.90;;;;;;5014117;28;20022;-61
2021/05/22 09:05:22;;;;;;;48.55;44.95;;;13.70;99.90;;;;;;5013973;28;20053;-62
2021/05/22 09:07:57;;;;;;;50.13;46.53;;;13.70;99.90;;;;;;5014075;28;20030;-61
2021/05/22 09:10:33;;;;;;;49.70;46.00;;;13.60;99.90;;;;;;5014015;28;20029;-61
2021/05/22 09:13:01;;;;;;;49.72;46.15;;;13.60;99.90;;;;;;5014178;28;20022;-61
2021/05/22 09:15:32;;;;;;;52.08;48.25;;;13.50;99.90;;;;;;5013910;28;20171;-61
2021/05/22 09:18:02;;;;;;;52.03;48.05;;;13.50;99.90;;;;;;5013776;28;20033;-61
2021/05/22 09:20:35;;;;;;;50.67;46.92;;;13.40;99.90;;;;;;5013760;28;20044;-61
2021/05/22 09:23:07;;;;;;;52.88;49.35;;;13.30;99.90;;;;;;5013648;28;20105;-61
2021/05/22 09:25:36;;;;;;;49.85;45.92;;;13.30;99.90;;;;;;5013759;28;20037;-61
2021/05/22 09:28:06;;;;;;;54.95;50.95;;;13.30;99.90;;;;;;5013899;28;20494;-61
2021/05/22 09:30:35;;;;;;;54.47;50.40;;;13.20;99.90;;;;;;4996692;28;20026;-61
2021/05/22 09:33:04;;;;;;;54.92;50.55;;;13.10;99.90;;;;;;5013675;28;20459;-62
2021/05/22 09:35:31;;;;;;;56.42;52.03;;;13.10;99.90;;;;;;5013437;28;20470;-60
2021/05/22 09:38:02;;;;;;;55.20;50.63;;;13.10;99.90;;;;;;5013496;28;20021;-60
2021/05/22 09:40:35;;;;;;;59.42;54.88;;;13.10;99.90;;;;;;5013499;28;20383;-61
2021/05/22 09:43:06;;;;;;;61.33;56.35;;;13.10;99.90;;;;;;5013617;28;20043;-60
2021/05/22 09:45:37;;;;;;;60.13;55.35;;;13.10;99.90;;;;;;5013514;28;20570;-60
2021/05/22 09:48:13;;;;;;;56.13;51.75;;;13.00;99.90;;;;;;5013320;28;20483;-60
2021/05/22 09:50:47;;;;;;;55.95;51.17;;;12.90;99.90;;;;;;5013368;28;20087;-61
2021/05/22 09:53:35;;;;;;;52.97;48.78;;;12.90;99.90;;;;;;5013231;28;20112;-61
2021/05/22 09:56:16;;;;;;;54.90;50.17;;;12.90;99.90;;;;;;5012957;28;20025;-63
2021/05/22 09:58:50;;;;;;;54.88;50.67;;;13.20;99.90;;;;;;4995384;28;20046;-62
2021/05/22 10:01:19;;;;;;;57.08;52.50;;;13.10;99.90;;;;;;5013199;28;20033;-62
2021/05/22 10:03:47;;;;;;;53.78;49.28;;;13.00;99.90;;;;;;5013120;28;20030;-63
2021/05/22 10:06:15;;;;;;;54.25;49.90;;;13.00;99.90;;;;;;5013156;28;20018;-63
2021/05/22 10:08:43;;;;;;;53.15;48.67;;;12.90;99.90;;;;;;4995381;28;20033;-63
2021/05/22 10:11:11;;;;;;;53.53;48.95;;;12.90;99.90;;;;;;5013017;28;20030;-63
2021/05/22 10:13:42;;;;;;;55.85;51.30;;;12.80;99.90;;;;;;5012991;28;20113;-63
2021/05/22 10:16:10;;;;;;;56.90;52.42;;;12.70;99.90;;;;;;5012937;28;20032;-63
2021/05/22 10:18:37;;;;;;;58.53;53.85;;;12.70;99.90;;;;;;5012988;28;20471;-63
2021/05/22 10:21:06;;;;;;;55.60;51.00;;;12.70;99.90;;;;;;5013119;28;20475;-63
2021/05/22 10:23:34;;;;;;;56.03;51.50;;;12.60;99.90;;;;;;5013131;28;20108;-63
2021/05/22 10:26:02;;;;;;;55.70;51.25;;;12.50;99.90;;;;;;4995379;28;20025;-63
2021/05/22 10:28:29;;;;;;;55.63;50.78;;;12.40;99.90;;;;;;5012845;28;20018;-63
2021/05/22 10:30:57;;;;;;;55.03;50.58;;;12.40;99.90;;;;;;5012832;28;20018;-63
2021/05/22 10:33:25;;;;;;;57.17;52.40;;;12.40;99.90;;;;;;4995167;28;20039;-63
2021/05/22 10:35:56;;;;;;;56.95;52.17;;;12.30;99.90;;;;;;5012799;28;20062;-63
2021/05/22 10:38:37;;;;;;;57.90;53.08;;;12.20;99.90;;;;;;5012848;28;20026;-63
2021/05/22 10:41:11;;;;;;;56.40;51.30;;;12.20;99.90;;;;;;5012768;28;20509;-63
2021/05/22 10:43:54;;;;;;;55.78;50.85;;;12.20;99.90;;;;;;5012831;28;20101;-62
2021/05/22 10:46:22;;;;;;;56.28;51.35;;;12.10;99.90;;;;;;4995167;28;20025;-63
2021/05/22 10:49:02;;;;;;;60.13;54.65;;;12.20;99.90;;;;;;5012653;28;20033;-63
2021/05/22 10:51:47;;;;;;;58.55;53.75;;;12.20;99.90;;;;;;5012567;28;20434;-63
2021/05/22 10:54:16;;;;;;;58.47;53.38;;;12.20;99.90;;;;;;5012718;28;20497;-63
2021/05/22 10:57:09;;;;;;;58.78;53.60;;;12.20;99.90;;;;;;5012505;28;20050;-62
2021/05/22 10:59:36;;;;;;;57.95;52.75;;;12.10;99.90;;;;;;5012432;28;20069;-62
2021/05/22 11:02:33;;;;;;;66.60;61.10;;;12.00;99.90;;;;;;5012502;28;20036;-62
2021/05/22 11:05:23;;;;;;;61.22;56.08;;;12.00;99.90;;;;;;5012510;28;20026;-64
2021/05/22 11:08:13;;;;;;;61.55;56.25;;;12.00;99.90;;;;;;5013327;28;20033;-64
2021/05/22 11:11:09;;;;;;;60.47;55.28;;;12.00;99.90;;;;;;5016344;28;20152;-64
2021/05/22 11:13:38;;;;;;;62.40;57.10;;;12.00;99.90;;;;;;5015643;28;20056;-65
2021/05/22 11:16:07;;;;;;;60.35;55.13;;;12.10;99.90;;;;;;5016341;28;20099;-62
2021/05/22 11:18:34;;;;;;;59.95;54.65;;;12.10;99.90;;;;;;5016209;28;20033;-64
2021/05/22 11:21:19;;;;;;;60.97;55.83;;;12.10;99.90;;;;;;5016149;28;20096;-64
2021/05/22 11:23:59;;;;;;;57.72;52.72;;;12.10;99.90;;;;;;5015897;28;20030;-64
2021/05/22 11:26:48;;;;;;;60.05;54.72;;;12.00;99.90;;;;;;4998438;28;20152;-64
2021/05/22 11:29:16;;;;;;;61.42;56.33;;;12.00;99.90;;;;;;5015900;28;20387;-64
2021/05/22 11:31:44;;;;;;;60.42;55.60;;;12.00;99.90;;;;;;5015901;28;20105;-64
2021/05/22 11:34:23;;;;;;;59.10;54.40;;;12.00;99.90;;;;;;5015692;28;20039;-65
2021/05/22 11:37:12;;;;;;;59.08;54.40;;;12.00;99.90;;;;;;5015873;28;20022;-64
2021/05/22 11:39:47;;;;;;;61.40;56.17;;;12.00;99.90;;;;;;5015587;28;20029;-62
2021/05/22 11:42:33;;;;;;;61.40;56.63;;;12.10;99.90;;;;;;5015687;28;20037;-63
2021/05/22 11:45:03;;;;;;;60.97;56.10;;;12.00;99.90;;;;;;5015349;28;20044;-63
2021/05/22 11:47:35;;;;;;;61.47;56.47;;;12.10;99.90;;;;;;5015771;28;20026;-63
2021/05/22 11:50:04;;;;;;;62.58;57.15;;;12.10;99.90;;;;;;5015678;28;20510;-63
2021/05/22 11:52:34;;;;;;;61.33;56.42;;;12.10;99.90;;;;;;5015553;28;20022;-63
2021/05/22 11:55:16;;;;;;;60.97;56.28;;;12.10;99.90;;;;;;5015339;28;20097;-64
2021/05/22 11:57:44;;;;;;;63.67;59.08;;;12.00;99.90;;;;;;5015353;28;20080;-64
2021/05/22 12:00:12;;;;;;;65.35;59.95;;;12.00;99.90;;;;;;5015197;28;20060;-63
2021/05/22 12:02:42;;;;;;;62.90;57.60;;;12.00;99.90;;;;;;4997666;28;20474;-64
2021/05/22 12:05:11;;;;;;;62.78;57.80;;;12.00;99.90;;;;;;5015350;28;20430;-63
2021/05/22 12:07:51;;;;;;;62.22;57.35;;;11.90;99.90;;;;;;5015265;28;20034;-63
2021/05/22 12:10:20;;;;;;;61.80;56.97;;;11.90;99.90;;;;;;5015262;28;20048;-64
2021/05/22 12:12:47;;;;;;;65.72;60.25;;;11.80;99.90;;;;;;5015233;28;20030;-64
2021/05/22 12:15:25;;;;;;;64.75;59.55;;;11.80;99.90;;;;;;5014931;28;20030;-64
2021/05/22 12:17:54;;;;;;;63.78;58.90;;;11.80;99.90;;;;;;5015057;28;20026;-64
2021/05/22 12:20:23;;;;;;;64.22;59.08;;;11.80;99.90;;;;;;5013753;28;20073;-63
2021/05/22 12:22:51;;;;;;;63.63;58.85;;;11.80;99.90;;;;;;4997317;28;20363;-63
2021/05/22 12:25:18;;;;;;;67.40;62.28;;;11.80;99.90;;;;;;5014910;28;20029;-64
2021/05/22 12:27:46;;;;;;;63.97;59.35;;;11.80;99.90;;;;;;5014750;28;20033;-64
2021/05/22 12:30:15;;;;;;;63.92;58.90;;;11.80;99.90;;;;;;5014599;28;20033;-64
2021/05/22 12:32:43;;;;;;;65.40;60.53;;;11.80;99.90;;;;;;5014742;28;20022;-64
2021/05/22 12:35:11;;;;;;;63.97;59.10;;;11.70;99.90;;;;;;5014568;28;20025;-65
2021/05/22 12:37:39;;;;;;;64.45;59.58;;;11.70;99.90;;;;;;5014506;28;20497;-63
2021/05/22 12:40:09;;;;;;;62.15;57.75;;;11.70;99.90;;;;;;5014452;28;20093;-65
2021/05/22 12:42:39;;;;;;;66.80;61.95;;;11.80;99.90;;;;;;5014581;28;20032;-62
2021/05/22 12:45:14;;;;;;;67.03;62.17;;;11.80;99.90;;;;;;5014715;28;20026;-64
2021/05/22 12:47:46;;;;;;;66.38;61.13;;;11.80;99.90;;;;;;5014658;28;20085;-64